windows.net alexa rank chart, windows.net alexa rank daily changes

windows.net alexa rank chart, windows.net alexa rank daily changes

windows.net
Actual rank:
1 616

RANK HISTORY

Date Rank Diff
2019/07/13 1 616 -63
2019/07/12 1 679 -106
2019/07/11 1 785 -13
2019/07/10 1 798 -2 284
2019/07/09 4 082 +976
2019/07/08 3 106 +492
2019/07/07 2 614 -54
2019/07/06 2 668 +971
2019/07/05 1 697 -46
2019/07/04 1 743 +33
2019/07/03 1 710 -2 391
2019/07/02 4 101 -553
2019/07/01 4 654 +2 531
2019/06/30 2 123 +211
2019/06/29 1 912 -347
2019/06/28 2 259 +422
2019/06/27 1 837 -151
2019/06/26 1 988 -2 155
2019/06/25 4 143 -310
2019/06/24 4 453 +2 297
2019/06/23 2 156 +77
2019/06/22 2 079 +268
2019/06/21 1 811 -203
2019/06/20 2 014 -121
2019/06/19 2 135 -2 111
2019/06/18 4 246 -651
2019/06/17 4 897 +2 770
2019/06/16 2 127 +131
2019/06/15 1 996 +111
2019/06/14 1 885 +6
2019/06/13 1 879 -1 976
2019/06/12 3 855 -535
2019/06/11 4 390 +702
2019/06/10 3 688 +1 628
2019/06/09 2 060 +370
2019/06/08 1 690 +10
2019/06/07 1 680 -60
2019/06/06 1 740 +89
2019/06/05 1 651 -2 092
2019/06/04 3 743 +123
2019/06/03 3 620 +1 901
2019/06/02 1 719 +107
2019/06/01 1 612 +12
2019/05/31 1 600 +48
2019/05/30 1 552 -692
2019/05/29 2 244 -2 902
2019/05/28 5 146 +426
2019/05/27 4 720 +2 934
2019/05/26 1 786 +74
2019/05/25 1 712 -252
2019/05/24 1 964 +355
2019/05/23 1 609 -138
2019/05/22 1 747 -2 410
2019/05/21 4 157 +194
2019/05/20 3 963 +1 784
2019/05/19 2 179 +458
2019/05/18 1 721 -89
2019/05/17 1 810 +181
2019/05/16 1 629 -471
2019/05/15 2 100

WIDGET FOR YOUR SITE

DOMAINS WITH THE NEAREST RANK

Domain Rank
support.wordpress.com 1 611
variety.com 1 612
syf.com 1 613
tiki.vn 1 614
isna.ir 1 615
windows.net 1 616
almashhad-alyemeni.com 1 617
olx.ro 1 618
uploaded.net 1 619
goibibo.com 1 620
content.tmall.com 1 621

DOMAINS WITH THE NEAREST RANK BY TLD .net

Domain Rank
aarth.net 1 423
vkuservideo.net 1 450
clien.net 1 509
xuite.net 1 532
readms.net 1 582
windows.net 1 616
uploaded.net 1 619
nearbysluts.net 1 636
template.net 1 668
ummy.net 1 671
zaycev.net 1 716